Time;durP1;ratioP1;P1;durP2;ratioP2;P2;SDS_P1;SDS_P2;PMS_P1;PMS_P2;Temp;Humidity;BMP_temperature;BMP_pressure;BME280_temperature;BME280_humidity;BME280_pressure;Samples;Min_cycle;Max_cycle;Signal;HPM_P1;HPM_P2
2021/01/13 00:01:19;;;;;;;12.13;6.40;;;2.60;71.20;3.60;100479.00;;;;5060944;28;20507;-83
2021/01/13 00:03:47;;;;;;;12.93;6.15;;;2.60;71.80;3.60;100472.00;;;;5096035;28;20434;-80
2021/01/13 00:06:16;;;;;;;12.93;6.83;;;2.50;72.50;3.60;100456.00;;;;5116671;28;20423;-80
2021/01/13 00:08:44;;;;;;;12.68;6.90;;;2.50;72.80;3.50;100473.00;;;;5088109;28;20414;-80
2021/01/13 00:11:13;;;;;;;12.70;7.22;;;2.50;73.10;3.50;100465.00;;;;5093182;28;20504;-78
2021/01/13 00:13:40;;;;;;;14.40;7.50;;;2.40;73.50;3.50;100466.00;;;;5096341;28;20440;-78
2021/01/13 00:16:08;;;;;;;12.77;7.37;;;2.40;74.50;3.40;100472.00;;;;5100562;28;20418;-79
2021/01/13 00:18:36;;;;;;;12.50;7.53;;;2.40;74.00;3.40;100476.00;;;;5121956;28;20432;-79
2021/01/13 00:21:04;;;;;;;13.13;7.18;;;2.50;73.90;3.40;100462.00;;;;5101253;28;20459;-78
2021/01/13 00:23:32;;;;;;;14.32;7.88;;;2.60;73.40;217.30;158102.00;;;;5094798;28;20422;-78
2021/01/13 00:26:00;;;;;;;12.75;7.72;;;2.60;73.00;3.40;100496.00;;;;5094505;28;20799;-77
2021/01/13 00:28:27;;;;;;;13.43;7.75;;;2.60;72.90;3.40;100487.00;;;;5077006;28;20425;-78
2021/01/13 00:30:55;;;;;;;13.35;7.90;;;2.60;73.00;3.50;100489.00;;;;5076772;28;20414;-78
2021/01/13 00:33:24;;;;;;;13.30;7.70;;;2.60;73.30;3.50;100492.00;;;;5094785;28;20417;-78
2021/01/13 00:35:52;;;;;;;16.60;7.30;;;2.50;73.50;3.40;100498.00;;;;5095099;28;20406;-78
2021/01/13 00:38:19;;;;;;;11.68;6.97;;;2.50;73.70;3.40;100479.00;;;;5095317;28;20524;-76
2021/01/13 00:40:48;;;;;;;13.80;7.80;;;2.60;73.30;3.50;100490.00;;;;5095037;28;21297;-78
2021/01/13 00:43:15;;;;;;;15.70;7.53;;;2.60;73.40;3.50;100501.00;;;;5095244;28;20501;-77
2021/01/13 00:45:43;;;;;;;13.25;7.20;;;2.50;73.30;3.50;100501.00;;;;5095324;28;20773;-78
2021/01/13 00:48:11;;;;;;;13.38;6.90;;;2.50;73.50;3.40;100483.00;;;;5077093;28;20433;-79
2021/01/13 00:50:39;;;;;;;15.80;6.70;;;2.50;73.40;3.50;100490.00;;;;5076261;28;20933;-75
2021/01/13 00:53:07;;;;;;;10.00;6.40;;;2.60;73.00;3.50;100487.00;;;;5069067;28;20514;-79
2021/01/13 00:55:34;;;;;;;13.48;7.30;;;2.60;72.70;3.50;100480.00;;;;5072578;28;20423;-79
2021/01/13 00:58:02;;;;;;;14.93;7.90;;;2.50;73.10;3.50;100496.00;;;;5096356;28;20403;-78
2021/01/13 01:00:29;;;;;;;15.45;8.00;;;2.40;73.90;3.50;100481.00;;;;5096581;28;20437;-78
2021/01/13 01:03:04;;;;;;;12.55;7.72;;;2.30;74.60;3.40;100495.00;;;;5095810;28;20411;-78
2021/01/13 01:05:31;;;;;;;16.58;7.68;;;2.30;74.80;3.30;100493.00;;;;5078030;28;20429;-78
2021/01/13 01:08:00;;;;;;;15.05;8.10;;;2.30;75.20;3.20;100513.00;;;;5071819;28;20454;-77
2021/01/13 01:10:31;;;;;;;14.15;7.35;;;2.30;75.00;3.20;100507.00;;;;5065167;28;20495;-77
2021/01/13 01:13:00;;;;;;;13.90;7.55;;;2.30;74.90;217.30;157963.00;;;;5096027;28;20403;-78
2021/01/13 01:15:27;;;;;;;14.45;8.05;;;2.40;74.90;3.10;100503.00;;;;5079359;28;20438;-79
2021/01/13 01:17:55;;;;;;;11.93;6.80;;;2.20;74.80;3.20;100486.00;;;;5095293;28;20438;-78
2021/01/13 01:20:23;;;;;;;13.50;7.25;;;2.20;75.00;3.10;100507.00;;;;5079130;28;20491;-76
2021/01/13 01:22:52;;;;;;;11.85;7.57;;;2.30;75.00;3.10;100510.00;;;;5081006;28;20907;-76
2021/01/13 01:25:21;;;;;;;11.02;7.18;;;2.20;74.80;3.10;100501.00;;;;5081478;28;20422;-76
2021/01/13 01:27:50;;;;;;;12.88;7.53;;;2.20;74.80;3.00;100497.00;;;;5075068;28;20418;-78
2021/01/13 01:30:18;;;;;;;14.77;7.50;;;2.10;74.70;3.10;100511.00;;;;5092563;28;20405;-78
2021/01/13 01:32:46;;;;;;;14.93;7.90;;;2.00;75.10;3.00;100520.00;;;;5076520;28;20536;-79
2021/01/13 01:35:14;;;;;;;11.40;7.55;;;2.00;75.50;2.90;100513.00;;;;5073982;28;20407;-78
2021/01/13 01:37:42;;;;;;;10.77;7.00;;;1.90;75.40;2.90;66901.00;;;;5072324;28;20413;-78
2021/01/13 01:40:13;;;;;;;15.90;7.95;;;1.90;75.80;2.80;100524.00;;;;5090995;28;20593;-78
2021/01/13 01:42:46;;;;;;;13.33;7.20;;;1.90;75.40;2.90;100536.00;;;;5083481;28;20507;-77
2021/01/13 01:45:17;;;;;;;11.10;7.20;;;2.00;75.10;2.90;100533.00;;;;5100313;28;20420;-77
2021/01/13 01:48:24;;;;;;;13.60;7.40;;;1.90;75.00;3.00;100543.00;;;;5076426;28;20426;-75
2021/01/13 01:50:53;;;;;;;12.68;6.88;;;1.90;75.20;2.90;100541.00;;;;5074042;28;20474;-78
2021/01/13 01:53:50;;;;;;;11.45;6.65;;;2.00;75.60;3.00;100532.00;;;;5061757;28;20509;-77
2021/01/13 01:56:26;;;;;;;12.73;6.90;;;2.10;74.90;3.00;100539.00;;;;5073713;28;20548;-77
2021/01/13 01:59:05;;;;;;;12.50;7.07;;;2.00;75.00;3.00;100540.00;;;;5073415;28;20784;-77
2021/01/13 02:01:36;;;;;;;16.88;7.35;;;1.80;75.50;3.00;100543.00;;;;5080987;28;20541;-77
2021/01/13 02:04:15;;;;;;;14.07;7.00;;;1.80;75.80;2.90;100557.00;;;;5071501;28;20464;-77
2021/01/13 02:07:27;;;;;;;13.73;6.83;;;1.70;76.10;2.70;100533.00;;;;5072544;28;20471;-77
2021/01/13 02:09:55;;;;;;;14.17;7.60;;;1.70;76.50;2.60;100525.00;;;;5022958;28;20504;-77
2021/01/13 02:12:35;;;;;;;15.30;6.70;;;1.80;76.60;2.70;100522.00;;;;5019954;28;20439;-77
2021/01/13 02:15:06;;;;;;;14.20;7.47;;;1.80;76.70;2.70;100514.00;;;;5053689;28;20437;-77
2021/01/13 02:17:37;;;;;;;12.13;6.63;;;1.90;76.50;2.70;100525.00;;;;5088764;28;20430;-77
2021/01/13 02:20:16;;;;;;;13.00;6.57;;;1.90;76.80;2.60;100525.00;;;;5058236;28;20477;-76
2021/01/13 02:23:00;;;;;;;10.98;6.10;;;1.90;76.20;2.70;100545.00;;;;5089899;28;20846;-77
2021/01/13 02:26:28;;;;;;;11.30;6.30;;;1.90;76.10;2.70;100528.00;;;;5060670;28;20440;-77
2021/01/13 02:29:04;;;;;;;10.17;6.40;;;1.90;76.10;2.70;100538.00;;;;5069178;28;20774;-75
2021/01/13 02:31:41;;;;;;;12.40;7.10;;;1.90;76.20;2.70;100530.00;;;;5076332;28;20438;-75
2021/01/13 02:34:20;;;;;;;15.23;6.90;;;1.90;76.30;2.70;100522.00;;;;5057366;28;20418;-76
2021/01/13 02:37:36;;;;;;;12.52;6.72;;;1.90;76.40;2.70;66858.00;;;;5093471;28;20416;-76
2021/01/13 02:40:07;;;;;;;14.07;7.00;;;1.90;76.70;2.80;100538.00;;;;5084560;28;20416;-75
2021/01/13 02:42:38;;;;;;;16.52;7.00;;;1.80;76.70;2.80;100544.00;;;;5078356;28;20444;-75
2021/01/13 02:45:11;;;;;;;11.47;7.40;;;1.80;77.00;2.80;100542.00;;;;5099882;28;20417;-76
2021/01/13 02:48:21;;;;;;;14.50;7.60;;;1.80;77.20;2.80;100531.00;;;;5089388;28;20445;-75
2021/01/13 02:50:55;;;;;;;13.98;7.75;;;1.70;77.20;2.80;100540.00;;;;4988036;28;21243;-75
2021/01/13 02:53:53;;;;;;;16.05;7.10;;;1.70;77.60;2.80;100543.00;;;;5079377;28;20430;-75
2021/01/13 02:56:44;;;;;;;15.55;7.50;;;1.70;77.80;2.80;100537.00;;;;5068707;28;20827;-75
2021/01/13 02:59:13;;;;;;;13.80;7.55;;;1.60;77.90;2.80;100545.00;;;;5075070;28;20491;-75
2021/01/13 03:01:45;;;;;;;12.70;7.22;;;1.60;78.30;2.70;100540.00;;;;5078528;28;20443;-75
2021/01/13 03:04:14;;;;;;;13.77;7.30;;;1.60;78.50;2.80;100551.00;;;;5089487;28;20786;-75
2021/01/13 03:06:47;;;;;;;16.80;7.18;;;1.70;78.70;2.70;100539.00;;;;5071075;28;20424;-75
2021/01/13 03:09:16;;;;;;;15.48;7.53;;;1.70;78.50;2.80;100551.00;;;;5075975;28;20414;-75
2021/01/13 03:11:44;;;;;;;15.45;7.00;;;1.80;78.30;2.80;100548.00;;;;5095993;28;20414;-75
2021/01/13 03:14:22;;;;;;;16.50;7.10;;;1.80;78.20;2.80;100539.00;;;;5096517;28;20417;-76
2021/01/13 03:17:23;;;;;;;13.73;6.90;;;1.70;78.20;2.80;100550.00;;;;5075252;28;20418;-75
2021/01/13 03:20:09;;;;;;;12.85;6.50;;;1.70;78.30;2.80;100553.00;;;;5076873;28;20420;-76
2021/01/13 03:22:46;;;;;;;14.30;7.30;;;1.70;78.30;2.80;100562.00;;;;5094906;28;20491;-75
2021/01/13 03:25:16;;;;;;;13.55;6.65;;;1.70;78.40;2.80;100560.00;;;;5080031;28;20417;-75
2021/01/13 03:27:46;;;;;;;14.00;7.00;;;1.70;78.40;2.80;100554.00;;;;5100982;28;20427;-76
2021/01/13 03:30:17;;;;;;;14.45;6.95;;;1.70;78.40;2.80;100554.00;;;;5106129;28;20441;-76
2021/01/13 03:33:11;;;;;;;10.75;6.53;;;1.70;78.40;3.00;100558.00;;;;5109388;28;20431;-76
2021/01/13 03:35:44;;;;;;;13.85;7.28;;;1.70;78.60;3.20;100576.00;;;;5080209;28;20429;-74
2021/01/13 03:38:16;;;;;;;14.75;6.40;;;1.80;78.60;3.20;100576.00;;;;5084259;28;20828;-75
2021/01/13 03:40:47;;;;;;;9.93;5.75;;;1.90;78.50;3.30;100565.00;;;;5103907;28;20408;-76
2021/01/13 03:43:19;;;;;;;11.93;6.80;;;1.90;78.00;3.30;100552.00;;;;5082142;28;20436;-76
2021/01/13 03:45:50;;;;;;;14.40;6.72;;;1.90;77.70;3.20;100575.00;;;;5085818;28;20484;-76
2021/01/13 03:48:42;;;;;;;11.90;6.38;;;1.80;77.50;3.00;100580.00;;;;5114068;28;20429;-76
2021/01/13 03:51:49;;;;;;;11.32;6.68;;;1.80;77.80;3.00;100566.00;;;;5093977;28;20484;-76
2021/01/13 03:54:18;;;;;;;12.77;7.03;;;1.70;78.00;3.00;100572.00;;;;5112147;28;20428;-76
2021/01/13 03:56:59;;;;;;;14.90;6.40;;;1.70;78.20;2.70;100558.00;;;;5094662;28;20471;-76
2021/01/13 03:59:43;;;;;;;11.07;6.32;;;1.70;78.30;2.80;100568.00;;;;5092373;28;20476;-76
2021/01/13 04:02:17;;;;;;;10.90;6.13;;;1.60;78.50;2.80;100573.00;;;;5082067;28;20488;-76
2021/01/13 04:04:55;;;;;;;13.13;6.82;;;1.50;78.80;2.80;100591.00;;;;5128533;28;20443;-75
2021/01/13 04:07:24;;;;;;;14.03;6.40;;;1.50;79.40;2.80;100576.00;;;;5080396;28;20430;-75
2021/01/13 04:09:56;;;;;;;11.65;6.28;;;1.40;79.50;2.80;100583.00;;;;5076154;28;20420;-75
2021/01/13 04:12:29;;;;;;;12.30;6.10;;;1.40;79.10;2.80;100588.00;;;;5094121;28;20410;-75
2021/01/13 04:14:57;;;;;;;11.15;6.00;;;1.40;79.50;2.80;100588.00;;;;5085714;28;20426;-75
2021/01/13 04:17:28;;;;;;;12.05;5.93;;;1.60;79.90;2.90;100587.00;;;;5090073;28;20409;-76
2021/01/13 04:19:57;;;;;;;10.25;5.53;;;1.60;79.60;2.90;100571.00;;;;5076569;28;20415;-75
2021/01/13 04:22:28;;;;;;;14.45;5.90;;;1.60;79.30;217.30;157902.00;;;;5095957;28;20441;-76
2021/01/13 04:24:56;;;;;;;12.05;5.60;;;1.60;79.00;2.70;100566.00;;;;5103806;28;20420;-75
2021/01/13 04:27:24;;;;;;;12.48;5.90;;;1.60;78.90;2.60;100568.00;;;;5094882;28;20416;-75
2021/01/13 04:29:52;;;;;;;13.13;5.30;;;1.70;78.90;2.50;100553.00;;;;5075120;28;20454;-75
2021/01/13 04:32:19;;;;;;;12.98;5.60;;;1.70;78.90;2.50;100566.00;;;;5075108;28;20418;-75
2021/01/13 04:34:48;;;;;;;11.95;4.90;;;1.70;78.90;2.40;100570.00;;;;5075162;28;20422;-75
2021/01/13 04:37:19;;;;;;;12.60;5.20;;;1.70;78.70;2.50;100583.00;;;;5069423;28;20476;-76
2021/01/13 04:39:48;;;;;;;10.90;5.30;;;1.60;78.50;2.60;100578.00;;;;5078731;28;20427;-76
2021/01/13 04:42:29;;;;;;;13.80;5.93;;;1.60;78.50;2.60;100579.00;;;;5079278;28;20420;-76
2021/01/13 04:45:09;;;;;;;14.10;5.40;;;1.60;78.50;2.60;100592.00;;;;5081759;28;20420;-75
2021/01/13 04:47:50;;;;;;;12.48;5.30;;;1.60;78.60;2.60;100579.00;;;;5095451;28;20426;-75
2021/01/13 04:50:20;;;;;;;9.95;5.30;;;1.60;78.60;2.60;100594.00;;;;5102592;28;20427;-75
2021/01/13 04:52:50;;;;;;;11.73;5.05;;;1.60;78.40;2.60;100598.00;;;;5078503;28;20804;-75
2021/01/13 04:55:25;;;;;;;8.88;5.20;;;1.60;78.30;2.50;100592.00;;;;5093474;28;20417;-76
2021/01/13 04:58:40;;;;;;;13.32;5.22;;;1.60;78.10;2.40;100586.00;;;;5073018;28;20427;-76
2021/01/13 05:01:54;;;;;;;12.63;5.30;;;1.60;77.90;2.40;100596.00;;;;5072116;28;20415;-76
2021/01/13 05:05:04;;;;;;;9.60;4.40;;;1.60;77.80;2.40;100599.00;;;;5051983;28;20445;-76
2021/01/13 05:07:39;;;;;;;8.45;4.30;;;1.50;77.70;2.50;100586.00;;;;5066954;28;20458;-76
2021/01/13 05:10:13;;;;;;;9.02;4.20;;;1.50;77.50;2.50;100578.00;;;;5103711;28;20424;-76
2021/01/13 05:12:52;;;;;;;11.95;4.60;;;1.50;77.30;2.50;100587.00;;;;5083730;28;20418;-75
2021/01/13 05:15:24;;;;;;;12.40;5.00;;;1.50;77.10;2.50;100578.00;;;;5095748;28;20434;-75
2021/01/13 05:18:04;;;;;;;8.90;4.40;;;1.50;77.20;2.40;100575.00;;;;5094633;28;20451;-75
2021/01/13 05:20:33;;;;;;;12.68;4.60;;;1.50;77.10;2.60;100581.00;;;;5085031;28;20430;-77
2021/01/13 05:23:03;;;;;;;11.50;4.87;;;1.40;77.10;217.30;157767.00;;;;5074075;28;20492;-75
2021/01/13 05:25:46;;;;;;;9.15;4.50;;;1.40;77.20;2.50;100590.00;;;;5072171;28;20839;-75
2021/01/13 05:28:20;;;;;;;8.60;4.30;;;1.50;77.20;2.60;100596.00;;;;5083248;28;20425;-75
2021/01/13 05:30:51;;;;;;;9.15;3.95;;;1.50;76.90;2.60;66824.00;;;;5073281;28;20460;-75
2021/01/13 05:33:21;;;;;;;10.50;4.55;;;1.60;76.70;2.60;100582.00;;;;5070865;28;20412;-75
2021/01/13 05:35:52;;;;;;;10.23;4.60;;;1.60;76.30;2.70;100591.00;;;;5093285;28;20429;-75
2021/01/13 05:38:57;;;;;;;10.50;4.72;;;1.60;76.10;2.70;66847.00;;;;5076114;28;20919;-76
2021/01/13 05:41:28;;;;;;;11.25;4.45;;;1.60;75.80;2.70;100572.00;;;;5107462;28;20408;-76
2021/01/13 05:43:56;;;;;;;9.70;4.68;;;1.70;75.50;2.60;100581.00;;;;5061776;28;20949;-75
2021/01/13 05:46:24;;;;;;;10.10;4.60;;;1.60;75.10;2.50;100575.00;;;;5089652;28;21016;-77
2021/01/13 05:48:53;;;;;;;11.50;4.60;;;1.60;75.30;217.30;157721.00;;;;5078142;28;20414;-75
2021/01/13 05:51:28;;;;;;;10.48;4.68;;;1.50;75.60;2.40;100570.00;;;;5074400;28;20496;-75
2021/01/13 05:53:56;;;;;;;11.25;4.07;;;1.50;76.00;2.30;100565.00;;;;5071679;28;20414;-75
2021/01/13 05:56:25;;;;;;;10.65;4.40;;;1.50;76.00;2.30;100578.00;;;;5077227;28;20517;-75
2021/01/13 05:59:03;;;;;;;11.50;4.60;;;1.50;75.90;2.40;100582.00;;;;5070474;28;20408;-75
2021/01/13 06:01:43;;;;;;;10.13;4.65;;;1.50;75.60;2.30;100567.00;;;;5072855;28;20421;-75
2021/01/13 06:04:11;;;;;;;15.50;4.97;;;1.50;75.60;2.30;100568.00;;;;5075767;28;20507;-75
2021/01/13 06:06:56;;;;;;;14.80;4.50;;;1.50;75.50;2.30;100570.00;;;;5091412;28;20405;-75
2021/01/13 06:09:25;;;;;;;10.35;4.00;;;1.40;75.50;2.30;100559.00;;;;5093718;28;20416;-75
2021/01/13 06:11:54;;;;;;;11.50;4.50;;;1.40;75.70;2.20;100566.00;;;;5060345;28;20470;-76
2021/01/13 06:14:26;;;;;;;8.30;4.25;;;1.30;75.80;2.20;100557.00;;;;5070950;28;20450;-76
2021/01/13 06:16:55;;;;;;;11.07;4.50;;;1.30;75.80;2.10;100567.00;;;;5071183;28;20418;-75
2021/01/13 06:19:24;;;;;;;8.40;4.60;;;1.20;75.90;2.00;100576.00;;;;5072914;28;20904;-76
2021/01/13 06:22:09;;;;;;;8.45;4.93;;;1.20;76.10;2.00;100576.00;;;;5098884;28;20456;-75
2021/01/13 06:24:38;;;;;;;9.35;4.38;;;1.10;76.30;2.10;100586.00;;;;5072879;28;20814;-75
2021/01/13 06:27:18;;;;;;;11.32;4.40;;;1.10;76.50;2.00;100583.00;;;;5075139;28;20447;-75
2021/01/13 06:29:52;;;;;;;12.52;5.57;;;1.10;76.70;1.90;66681.00;;;;5097486;28;20425;-75
2021/01/13 06:32:30;;;;;;;10.75;5.20;;;1.00;76.60;2.00;100572.00;;;;5096808;28;20462;-76
2021/01/13 06:35:25;;;;;;;11.02;5.10;;;1.00;76.90;1.90;100566.00;;;;5066861;28;20454;-75
2021/01/13 06:37:56;;;;;;;11.95;5.38;;;1.00;77.00;2.00;100577.00;;;;5095978;28;20418;-75
2021/01/13 06:40:24;;;;;;;10.73;5.43;;;0.90;77.10;2.00;100580.00;;;;5065538;28;20420;-74
2021/01/13 06:42:51;;;;;;;11.50;5.88;;;0.90;77.20;1.90;100572.00;;;;5081223;28;20841;-75
2021/01/13 06:45:32;;;;;;;9.20;6.10;;;0.90;77.30;1.90;100594.00;;;;5075698;28;20517;-75
2021/01/13 06:47:59;;;;;;;13.02;5.70;;;0.90;77.50;1.90;100569.00;;;;5061925;28;20416;-75
2021/01/13 06:50:35;;;;;;;12.45;5.68;;;0.90;77.50;1.90;100567.00;;;;5089001;28;20559;-75
2021/01/13 06:53:07;;;;;;;10.02;5.63;;;0.90;77.60;1.90;100577.00;;;;5075545;28;20967;-76
2021/01/13 06:55:37;;;;;;;10.38;5.00;;;1.00;77.60;1.90;100589.00;;;;5095752;28;20784;-75
2021/01/13 06:58:12;;;;;;;12.30;6.50;;;0.90;77.50;2.00;100593.00;;;;5092340;28;20421;-75
2021/01/13 07:00:41;;;;;;;11.00;5.70;;;1.00;77.50;1.90;100578.00;;;;5072637;28;20422;-76
2021/01/13 07:03:29;;;;;;;13.85;5.63;;;1.00;77.20;2.00;100591.00;;;;5083208;28;20770;-75
2021/01/13 07:06:08;;;;;;;10.40;5.60;;;1.10;76.90;2.00;100591.00;;;;5069924;28;20433;-75
2021/01/13 07:08:37;;;;;;;11.77;6.10;;;1.10;77.00;2.00;100586.00;;;;5086593;28;20418;-75
2021/01/13 07:11:07;;;;;;;11.85;5.60;;;1.10;77.00;2.10;100590.00;;;;5096301;28;20473;-75
2021/01/13 07:13:38;;;;;;;11.35;5.40;;;1.10;76.90;2.00;100602.00;;;;5091127;28;20413;-74
2021/01/13 07:16:08;;;;;;;12.25;5.28;;;1.10;76.60;2.00;100593.00;;;;5118713;28;20394;-76
2021/01/13 07:18:36;;;;;;;11.00;5.07;;;1.20;76.70;2.00;100586.00;;;;5097566;28;20442;-76
2021/01/13 07:21:08;;;;;;;10.75;5.45;;;1.20;76.40;2.00;100591.00;;;;5078809;28;20489;-75
2021/01/13 07:23:43;;;;;;;10.43;5.63;;;1.20;76.00;2.10;100598.00;;;;5081659;28;20529;-76
2021/01/13 07:26:12;;;;;;;11.68;5.57;;;1.30;76.30;2.10;100573.00;;;;5112812;28;20433;-76
2021/01/13 07:28:40;;;;;;;12.05;6.00;;;1.20;76.30;2.20;100586.00;;;;5104985;28;20423;-76
2021/01/13 07:31:09;;;;;;;10.65;6.10;;;1.10;76.20;2.10;66732.00;;;;5088708;28;20452;-76
2021/01/13 07:33:42;;;;;;;13.35;6.47;;;1.10;76.40;2.10;100596.00;;;;5102834;28;20448;-75
2021/01/13 07:36:17;;;;;;;12.43;6.10;;;1.20;76.50;2.20;100582.00;;;;5081622;28;20964;-75
2021/01/13 07:38:49;;;;;;;8.55;6.40;;;1.10;76.40;2.20;100572.00;;;;5076674;28;20421;-76
2021/01/13 07:42:01;;;;;;;14.40;6.18;;;1.10;76.20;2.20;100586.00;;;;5094194;28;20418;-76
2021/01/13 07:44:44;;;;;;;14.85;6.30;;;1.20;76.70;2.30;100600.00;;;;5090839;28;20842;-76
2021/01/13 07:47:32;;;;;;;9.80;6.40;;;1.20;76.20;2.40;100595.00;;;;5090054;28;20420;-76
2021/01/13 07:50:11;;;;;;;11.03;6.20;;;1.40;76.00;2.60;100597.00;;;;5079250;28;20515;-76
2021/01/13 07:52:43;;;;;;;12.25;5.50;;;1.40;75.50;2.70;100603.00;;;;5092538;28;20465;-75
2021/01/13 07:55:18;;;;;;;12.77;6.40;;;1.50;75.20;2.70;100604.00;;;;5075124;28;20479;-75
2021/01/13 07:57:51;;;;;;;10.33;5.97;;;1.50;74.90;2.70;100591.00;;;;5089262;28;20444;-76
2021/01/13 08:00:28;;;;;;;13.18;5.80;;;1.60;74.30;2.60;100608.00;;;;5080694;28;20412;-75
2021/01/13 08:03:50;;;;;;;10.20;6.10;;;1.60;73.80;2.60;100594.00;;;;5075597;28;20974;-75
2021/01/13 08:06:30;;;;;;;11.73;5.82;;;1.60;73.70;2.60;100579.00;;;;5083580;28;20446;-76
2021/01/13 08:09:10;;;;;;;13.73;6.10;;;1.60;74.60;2.70;100590.00;;;;5062998;28;20461;-76
2021/01/13 08:12:24;;;;;;;12.05;5.93;;;1.60;74.20;2.70;100593.00;;;;5094065;28;20476;-77
2021/01/13 08:15:44;;;;;;;12.75;5.97;;;1.60;73.90;2.80;100612.00;;;;5086108;28;20512;-77
2021/01/13 08:19:42;;;;;;;9.73;6.13;;;1.70;73.90;2.80;100607.00;;;;5058768;28;21351;-76
2021/01/13 08:22:39;;;;;;;11.77;6.32;;;1.70;73.80;2.70;100605.00;;;;5003633;28;20414;-76
2021/01/13 08:25:33;;;;;;;14.35;6.65;;;1.70;74.10;2.80;100617.00;;;;5017716;28;20866;-76
2021/01/13 08:28:12;;;;;;;10.00;6.20;;;1.70;74.20;2.80;100606.00;;;;5102665;28;20445;-76
2021/01/13 08:30:42;;;;;;;12.48;5.90;;;1.80;74.10;3.00;100605.00;;;;5078006;28;20426;-76
2021/01/13 08:33:20;;;;;;;13.03;6.33;;;1.90;73.80;3.00;100607.00;;;;5087352;28;20482;-75
2021/01/13 08:35:52;;;;;;;10.65;5.82;;;2.00;73.00;3.30;100614.00;;;;5094389;28;20495;-76
2021/01/13 08:38:23;;;;;;;14.38;6.30;;;2.00;73.20;3.30;100611.00;;;;5094753;28;20441;-76
2021/01/13 08:40:51;;;;;;;11.52;6.20;;;2.10;72.80;3.40;100613.00;;;;5086865;28;21153;-76
2021/01/13 08:43:20;;;;;;;10.90;6.47;;;2.20;72.30;3.50;100611.00;;;;5101403;28;20873;-76
2021/01/13 08:45:49;;;;;;;11.35;6.28;;;2.20;71.50;3.40;100620.00;;;;5087996;28;20820;-76
2021/01/13 08:48:19;;;;;;;11.27;6.20;;;2.30;71.10;3.50;100612.00;;;;5111581;28;20424;-76
2021/01/13 08:51:14;;;;;;;16.30;7.10;;;2.30;70.70;3.50;67016.00;;;;5082504;28;20455;-76
2021/01/13 08:53:44;;;;;;;14.32;6.63;;;2.30;71.00;3.40;66998.00;;;;5078668;28;20506;-76
2021/01/13 08:56:13;;;;;;;12.50;7.10;;;2.20;71.30;3.30;100606.00;;;;5100579;28;20974;-77
2021/01/13 08:58:55;;;;;;;10.27;6.50;;;2.20;71.90;3.40;100617.00;;;;5078255;28;20428;-76
2021/01/13 09:01:38;;;;;;;10.48;6.40;;;2.30;72.20;3.60;100608.00;;;;5097679;28;20424;-76
2021/01/13 09:04:14;;;;;;;11.90;6.13;;;2.40;71.70;3.70;100616.00;;;;5067994;28;20416;-76
2021/01/13 09:07:02;;;;;;;13.18;7.25;;;2.40;71.20;3.70;100599.00;;;;5086709;28;20408;-76
2021/01/13 09:09:33;;;;;;;14.35;7.30;;;2.50;71.30;3.60;100604.00;;;;5100976;28;20479;-76
2021/01/13 09:12:29;;;;;;;14.60;7.37;;;2.50;71.70;3.60;100614.00;;;;5084384;28;20519;-76
2021/01/13 09:15:26;;;;;;;10.93;6.80;;;2.50;71.70;3.60;100614.00;;;;5077964;28;20467;-75
2021/01/13 09:17:58;;;;;;;12.82;7.25;;;2.60;71.80;3.60;100573.00;;;;5106847;28;20781;-76
2021/01/13 09:20:29;;;;;;;10.45;7.40;;;2.60;72.00;3.80;100603.00;;;;5062429;28;20422;-76
2021/01/13 09:22:59;;;;;;;12.63;7.65;;;2.70;72.00;3.90;100609.00;;;;5080446;28;20445;-76
2021/01/13 09:25:29;;;;;;;12.38;7.90;;;2.80;71.40;4.10;100592.00;;;;5090367;28;20960;-76
2021/01/13 09:28:00;;;;;;;11.90;7.78;;;2.90;71.00;4.00;100588.00;;;;5087535;28;20418;-76
2021/01/13 09:30:38;;;;;;;12.70;7.32;;;2.90;71.10;4.10;100591.00;;;;5070125;28;20426;-76
2021/01/13 09:33:10;;;;;;;14.05;8.55;;;3.00;71.30;4.20;100587.00;;;;5094769;28;20417;-76
2021/01/13 09:35:40;;;;;;;12.95;8.50;;;3.10;71.50;4.40;100591.00;;;;5091177;28;20470;-76
2021/01/13 09:38:10;;;;;;;11.60;7.70;;;3.20;71.30;4.50;100598.00;;;;5106466;28;20412;-76
2021/01/13 09:40:56;;;;;;;11.45;8.40;;;3.50;70.40;4.90;100614.00;;;;5099009;28;20424;-76
2021/01/13 09:43:34;;;;;;;12.70;8.85;;;3.70;69.70;5.20;100615.00;;;;5078597;28;20458;-76
2021/01/13 09:46:04;;;;;;;13.68;8.20;;;4.00;68.80;5.50;100590.00;;;;5088921;28;20452;-76
2021/01/13 09:48:35;;;;;;;16.13;8.20;;;4.30;66.80;5.70;100592.00;;;;5077351;28;20470;-76
2021/01/13 09:51:10;;;;;;;12.30;7.70;;;4.40;66.20;5.90;100603.00;;;;5093702;28;20438;-76
2021/01/13 09:53:50;;;;;;;11.70;7.10;;;4.60;64.80;6.00;100596.00;;;;5074751;28;20472;-75
2021/01/13 09:56:19;;;;;;;13.38;7.45;;;4.70;64.30;6.00;100611.00;;;;5067945;28;21009;-75
2021/01/13 09:58:48;;;;;;;11.38;7.50;;;4.70;63.40;6.10;100576.00;;;;5087493;28;20457;-75
2021/01/13 10:01:18;;;;;;;10.60;7.28;;;4.70;63.60;5.80;100612.00;;;;5074604;28;20478;-75
2021/01/13 10:03:48;;;;;;;10.38;6.55;;;4.60;63.10;5.80;100597.00;;;;5095199;28;20547;-76
2021/01/13 10:06:19;;;;;;;10.10;6.75;;;4.60;63.60;217.30;159236.00;;;;5103817;28;20428;-77
2021/01/13 10:09:13;;;;;;;11.15;7.28;;;4.70;63.80;6.20;100603.00;;;;5096367;28;20424;-77
2021/01/13 10:11:42;;;;;;;10.85;6.45;;;4.90;62.70;6.00;100607.00;;;;5097362;28;20408;-77
2021/01/13 10:14:11;;;;;;;12.52;6.60;;;4.70;63.00;6.00;100608.00;;;;5093030;28;20867;-76
2021/01/13 10:16:43;;;;;;;12.10;7.00;;;4.70;63.50;5.60;100608.00;;;;5082017;28;20420;-76
2021/01/13 10:19:12;;;;;;;12.43;7.10;;;4.50;63.60;5.70;100590.00;;;;5077200;28;20400;-76
2021/01/13 10:21:42;;;;;;;9.45;6.40;;;4.40;65.00;5.70;100601.00;;;;5110361;28;20433;-75
2021/01/13 10:24:13;;;;;;;10.90;6.28;;;4.50;64.10;5.80;100602.00;;;;5112355;28;20400;-77
2021/01/13 10:26:45;;;;;;;11.55;5.70;;;4.50;63.80;5.70;100591.00;;;;5094716;28;20911;-75
2021/01/13 10:29:15;;;;;;;7.43;5.83;;;4.50;63.70;5.60;100591.00;;;;5113563;28;20455;-76
2021/01/13 10:31:43;;;;;;;9.25;5.72;;;4.40;63.60;5.50;100586.00;;;;5131743;28;20408;-76
2021/01/13 10:34:13;;;;;;;12.23;6.35;;;4.30;64.40;5.60;100599.00;;;;5112704;28;20768;-76
2021/01/13 10:36:44;;;;;;;12.00;5.90;;;4.40;64.20;5.70;100583.00;;;;5102759;28;20411;-76
2021/01/13 10:39:24;;;;;;;9.55;6.05;;;4.40;64.60;5.50;100582.00;;;;5079415;28;20509;-75
2021/01/13 10:41:54;;;;;;;11.25;5.47;;;4.40;64.40;5.60;100586.00;;;;5075099;28;20534;-75
2021/01/13 10:44:25;;;;;;;8.23;5.43;;;4.30;65.00;5.70;100578.00;;;;5096591;28;20432;-75
2021/01/13 10:46:58;;;;;;;12.15;6.32;;;4.40;65.10;6.10;100600.00;;;;5068714;28;20417;-77
2021/01/13 10:49:34;;;;;;;9.52;5.85;;;4.60;65.30;6.00;100582.00;;;;5090650;28;20419;-77
2021/01/13 10:52:05;;;;;;;10.63;5.20;;;4.70;63.90;6.00;100580.00;;;;5105787;28;20513;-76
2021/01/13 10:54:34;;;;;;;10.35;5.10;;;4.80;62.80;6.10;100579.00;;;;5115778;28;20456;-76
2021/01/13 10:57:07;;;;;;;8.17;5.20;;;4.90;62.70;6.20;100578.00;;;;5103281;28;21095;-78
2021/01/13 10:59:35;;;;;;;8.52;5.40;;;4.90;62.60;6.40;100566.00;;;;5111789;28;20421;-75
2021/01/13 11:02:05;;;;;;;9.73;5.60;;;5.00;62.30;6.50;100570.00;;;;5103328;28;20423;-76
2021/01/13 11:04:39;;;;;;;11.93;5.82;;;5.10;60.90;6.30;100577.00;;;;5092013;28;20436;-76
2021/01/13 11:07:11;;;;;;;9.27;4.80;;;5.10;61.50;6.20;100572.00;;;;5111682;28;20991;-77
2021/01/13 11:09:42;;;;;;;9.57;5.30;;;5.00;61.40;6.40;100575.00;;;;5092820;28;20516;-76
2021/01/13 11:12:18;;;;;;;7.30;5.25;;;5.10;61.30;6.50;100574.00;;;;5080537;28;20417;-76
2021/01/13 11:14:47;;;;;;;10.93;5.53;;;5.10;61.60;6.90;100566.00;;;;5107828;28;20420;-76
2021/01/13 11:17:17;;;;;;;11.85;5.28;;;5.30;60.80;7.30;100553.00;;;;5080514;28;20513;-76
2021/01/13 11:19:48;;;;;;;9.25;4.95;;;5.70;58.50;7.30;100558.00;;;;5090942;28;20458;-76
2021/01/13 11:22:16;;;;;;;10.20;4.90;;;5.90;58.00;7.50;100547.00;;;;5103510;28;20518;-77
2021/01/13 11:24:48;;;;;;;10.45;5.40;;;6.00;57.30;7.70;100536.00;;;;5081676;28;20423;-77
2021/01/13 11:27:18;;;;;;;12.18;5.68;;;6.00;57.30;7.80;100556.00;;;;5091432;28;20486;-77
2021/01/13 11:29:49;;;;;;;9.33;4.90;;;6.10;57.30;7.30;100555.00;;;;5092451;28;20440;-76
2021/01/13 11:32:19;;;;;;;8.87;5.10;;;6.00;55.60;7.50;100545.00;;;;5084935;28;20425;-76